sensor_id;sensor_type;location;lat;lon;timestamp;P1;durP1;ratioP1;P2;durP2;ratioP2
46719;SDS011;32452;51.382;-0.002;2022-10-31T00:02:12;26.45;;;4.55;;
46719;SDS011;32452;51.382;-0.002;2022-10-31T00:04:57;26.00;;;5.05;;
46719;SDS011;32452;51.382;-0.002;2022-10-31T00:07:43;23.17;;;5.35;;
46719;SDS011;32452;51.382;-0.002;2022-10-31T00:10:28;22.33;;;5.30;;
46719;SDS011;32452;51.382;-0.002;2022-10-31T00:13:14;20.08;;;5.18;;
46719;SDS011;32452;51.382;-0.002;2022-10-31T00:16:00;24.40;;;6.15;;
46719;SDS011;32452;51.382;-0.002;2022-10-31T00:18:52;24.73;;;5.00;;
46719;SDS011;32452;51.382;-0.002;2022-10-31T00:21:39;20.02;;;4.75;;
46719;SDS011;32452;51.382;-0.002;2022-10-31T00:24:25;17.73;;;5.35;;
46719;SDS011;32452;51.382;-0.002;2022-10-31T00:27:10;22.50;;;5.97;;
46719;SDS011;32452;51.382;-0.002;2022-10-31T00:29:55;18.17;;;5.38;;
46719;SDS011;32452;51.382;-0.002;2022-10-31T00:32:41;20.08;;;5.70;;
46719;SDS011;32452;51.382;-0.002;2022-10-31T00:35:27;22.05;;;5.65;;
46719;SDS011;32452;51.382;-0.002;2022-10-31T00:38:12;22.50;;;5.85;;
46719;SDS011;32452;51.382;-0.002;2022-10-31T00:40:58;20.83;;;6.00;;
46719;SDS011;32452;51.382;-0.002;2022-10-31T00:43:43;25.55;;;5.07;;
46719;SDS011;32452;51.382;-0.002;2022-10-31T00:46:29;30.20;;;7.68;;
46719;SDS011;32452;51.382;-0.002;2022-10-31T00:49:15;17.25;;;5.53;;
46719;SDS011;32452;51.382;-0.002;2022-10-31T00:52:00;13.90;;;4.55;;
46719;SDS011;32452;51.382;-0.002;2022-10-31T00:54:46;16.38;;;5.13;;
46719;SDS011;32452;51.382;-0.002;2022-10-31T00:57:31;29.88;;;7.00;;
46719;SDS011;32452;51.382;-0.002;2022-10-31T01:00:17;20.30;;;6.68;;
46719;SDS011;32452;51.382;-0.002;2022-10-31T01:03:02;21.10;;;6.55;;
46719;SDS011;32452;51.382;-0.002;2022-10-31T01:05:58;21.60;;;6.63;;
46719;SDS011;32452;51.382;-0.002;2022-10-31T01:08:46;26.10;;;7.03;;
46719;SDS011;32452;51.382;-0.002;2022-10-31T01:11:33;23.00;;;6.97;;
46719;SDS011;32452;51.382;-0.002;2022-10-31T01:14:18;21.08;;;5.65;;
46719;SDS011;32452;51.382;-0.002;2022-10-31T01:17:04;26.23;;;5.93;;
46719;SDS011;32452;51.382;-0.002;2022-10-31T01:19:49;22.67;;;5.30;;
46719;SDS011;32452;51.382;-0.002;2022-10-31T01:22:35;23.13;;;5.60;;
46719;SDS011;32452;51.382;-0.002;2022-10-31T01:25:21;20.77;;;6.50;;
46719;SDS011;32452;51.382;-0.002;2022-10-31T01:28:06;23.50;;;5.22;;
46719;SDS011;32452;51.382;-0.002;2022-10-31T01:30:52;24.63;;;5.40;;
46719;SDS011;32452;51.382;-0.002;2022-10-31T01:33:37;18.05;;;5.40;;
46719;SDS011;32452;51.382;-0.002;2022-10-31T01:36:24;24.05;;;4.80;;
46719;SDS011;32452;51.382;-0.002;2022-10-31T01:39:17;27.75;;;5.65;;
46719;SDS011;32452;51.382;-0.002;2022-10-31T01:42:03;24.35;;;5.53;;
46719;SDS011;32452;51.382;-0.002;2022-10-31T01:44:54;28.52;;;5.70;;
46719;SDS011;32452;51.382;-0.002;2022-10-31T01:47:43;18.70;;;4.97;;
46719;SDS011;32452;51.382;-0.002;2022-10-31T01:50:32;23.55;;;4.80;;
46719;SDS011;32452;51.382;-0.002;2022-10-31T01:53:22;22.23;;;4.72;;
46719;SDS011;32452;51.382;-0.002;2022-10-31T01:56:11;22.75;;;5.28;;
46719;SDS011;32452;51.382;-0.002;2022-10-31T01:58:58;26.33;;;7.35;;
46719;SDS011;32452;51.382;-0.002;2022-10-31T02:01:46;23.85;;;5.03;;
46719;SDS011;32452;51.382;-0.002;2022-10-31T02:04:35;20.48;;;5.95;;
46719;SDS011;32452;51.382;-0.002;2022-10-31T02:07:30;19.88;;;5.88;;
46719;SDS011;32452;51.382;-0.002;2022-10-31T02:10:23;20.13;;;5.45;;
46719;SDS011;32452;51.382;-0.002;2022-10-31T02:13:10;17.80;;;4.80;;
46719;SDS011;32452;51.382;-0.002;2022-10-31T02:15:58;18.75;;;5.35;;
46719;SDS011;32452;51.382;-0.002;2022-10-31T02:18:44;20.70;;;5.43;;
46719;SDS011;32452;51.382;-0.002;2022-10-31T02:21:38;25.00;;;6.50;;
46719;SDS011;32452;51.382;-0.002;2022-10-31T02:24:51;17.25;;;5.15;;
46719;SDS011;32452;51.382;-0.002;2022-10-31T02:40:27;18.98;;;4.80;;
46719;SDS011;32452;51.382;-0.002;2022-10-31T02:46:24;24.38;;;4.78;;
46719;SDS011;32452;51.382;-0.002;2022-10-31T02:49:28;29.85;;;5.30;;
46719;SDS011;32452;51.382;-0.002;2022-10-31T02:52:34;26.65;;;5.97;;
46719;SDS011;32452;51.382;-0.002;2022-10-31T02:58:11;23.60;;;4.63;;
46719;SDS011;32452;51.382;-0.002;2022-10-31T03:01:04;23.77;;;4.43;;
46719;SDS011;32452;51.382;-0.002;2022-10-31T03:07:08;21.08;;;5.32;;
46719;SDS011;32452;51.382;-0.002;2022-10-31T03:13:08;24.48;;;5.47;;
46719;SDS011;32452;51.382;-0.002;2022-10-31T03:16:18;18.33;;;4.28;;
46719;SDS011;32452;51.382;-0.002;2022-10-31T03:19:12;25.05;;;4.68;;
46719;SDS011;32452;51.382;-0.002;2022-10-31T03:22:22;29.73;;;5.30;;
46719;SDS011;32452;51.382;-0.002;2022-10-31T03:25:09;23.77;;;4.60;;
46719;SDS011;32452;51.382;-0.002;2022-10-31T03:27:56;21.15;;;4.57;;
46719;SDS011;32452;51.382;-0.002;2022-10-31T03:30:44;27.98;;;4.50;;
46719;SDS011;32452;51.382;-0.002;2022-10-31T03:33:31;26.50;;;5.65;;
46719;SDS011;32452;51.382;-0.002;2022-10-31T03:36:19;22.00;;;4.43;;
46719;SDS011;32452;51.382;-0.002;2022-10-31T03:39:07;25.67;;;5.28;;
46719;SDS011;32452;51.382;-0.002;2022-10-31T03:42:02;26.52;;;4.50;;
46719;SDS011;32452;51.382;-0.002;2022-10-31T03:45:01;23.92;;;4.95;;
46719;SDS011;32452;51.382;-0.002;2022-10-31T03:47:49;32.42;;;5.72;;
46719;SDS011;32452;51.382;-0.002;2022-10-31T03:50:38;26.13;;;4.65;;
46719;SDS011;32452;51.382;-0.002;2022-10-31T03:53:38;20.45;;;5.55;;
46719;SDS011;32452;51.382;-0.002;2022-10-31T03:56:33;35.95;;;5.38;;
46719;SDS011;32452;51.382;-0.002;2022-10-31T03:59:42;20.50;;;5.78;;
46719;SDS011;32452;51.382;-0.002;2022-10-31T04:02:32;28.90;;;5.45;;
46719;SDS011;32452;51.382;-0.002;2022-10-31T04:05:19;26.88;;;4.57;;
46719;SDS011;32452;51.382;-0.002;2022-10-31T04:08:07;22.15;;;5.63;;
46719;SDS011;32452;51.382;-0.002;2022-10-31T04:10:56;24.17;;;5.22;;
46719;SDS011;32452;51.382;-0.002;2022-10-31T04:13:43;21.15;;;4.55;;
46719;SDS011;32452;51.382;-0.002;2022-10-31T04:16:31;21.38;;;4.97;;
46719;SDS011;32452;51.382;-0.002;2022-10-31T04:19:16;20.30;;;3.50;;
46719;SDS011;32452;51.382;-0.002;2022-10-31T04:22:02;29.73;;;4.60;;
46719;SDS011;32452;51.382;-0.002;2022-10-31T04:24:47;24.05;;;4.75;;
46719;SDS011;32452;51.382;-0.002;2022-10-31T04:27:32;21.85;;;4.10;;
46719;SDS011;32452;51.382;-0.002;2022-10-31T04:30:18;28.75;;;6.80;;
46719;SDS011;32452;51.382;-0.002;2022-10-31T04:33:03;18.70;;;5.45;;
46719;SDS011;32452;51.382;-0.002;2022-10-31T04:35:49;22.50;;;4.68;;
46719;SDS011;32452;51.382;-0.002;2022-10-31T04:38:34;27.08;;;5.38;;
46719;SDS011;32452;51.382;-0.002;2022-10-31T04:41:20;28.08;;;4.45;;
46719;SDS011;32452;51.382;-0.002;2022-10-31T04:44:05;23.52;;;4.55;;
46719;SDS011;32452;51.382;-0.002;2022-10-31T04:46:51;19.40;;;5.05;;
46719;SDS011;32452;51.382;-0.002;2022-10-31T04:49:36;21.15;;;4.35;;
46719;SDS011;32452;51.382;-0.002;2022-10-31T04:52:22;21.70;;;4.60;;
46719;SDS011;32452;51.382;-0.002;2022-10-31T04:55:08;20.58;;;4.88;;
46719;SDS011;32452;51.382;-0.002;2022-10-31T04:57:54;24.33;;;4.70;;
46719;SDS011;32452;51.382;-0.002;2022-10-31T05:00:40;27.80;;;4.50;;
46719;SDS011;32452;51.382;-0.002;2022-10-31T05:03:26;24.27;;;4.45;;
46719;SDS011;32452;51.382;-0.002;2022-10-31T05:06:11;24.40;;;4.95;;
46719;SDS011;32452;51.382;-0.002;2022-10-31T05:08:57;24.00;;;5.07;;
46719;SDS011;32452;51.382;-0.002;2022-10-31T05:11:42;17.85;;;4.50;;
46719;SDS011;32452;51.382;-0.002;2022-10-31T05:14:29;28.38;;;5.05;;
46719;SDS011;32452;51.382;-0.002;2022-10-31T05:17:15;33.83;;;6.22;;
46719;SDS011;32452;51.382;-0.002;2022-10-31T05:20:00;20.73;;;5.00;;
46719;SDS011;32452;51.382;-0.002;2022-10-31T05:22:46;23.95;;;4.82;;
46719;SDS011;32452;51.382;-0.002;2022-10-31T05:25:36;24.75;;;5.15;;
46719;SDS011;32452;51.382;-0.002;2022-10-31T05:28:21;19.60;;;5.00;;
46719;SDS011;32452;51.382;-0.002;2022-10-31T05:31:07;32.58;;;5.78;;
46719;SDS011;32452;51.382;-0.002;2022-10-31T05:33:52;24.77;;;4.88;;
46719;SDS011;32452;51.382;-0.002;2022-10-31T05:36:37;23.30;;;4.93;;
46719;SDS011;32452;51.382;-0.002;2022-10-31T05:39:23;26.25;;;4.78;;
46719;SDS011;32452;51.382;-0.002;2022-10-31T05:42:08;25.23;;;5.18;;
46719;SDS011;32452;51.382;-0.002;2022-10-31T05:44:54;21.02;;;4.85;;
46719;SDS011;32452;51.382;-0.002;2022-10-31T05:47:39;23.50;;;4.82;;
46719;SDS011;32452;51.382;-0.002;2022-10-31T05:50:26;25.02;;;4.68;;
46719;SDS011;32452;51.382;-0.002;2022-10-31T05:53:12;20.52;;;5.15;;
46719;SDS011;32452;51.382;-0.002;2022-10-31T05:55:58;23.23;;;4.57;;
46719;SDS011;32452;51.382;-0.002;2022-10-31T05:58:44;24.88;;;4.60;;
46719;SDS011;32452;51.382;-0.002;2022-10-31T06:01:29;18.08;;;4.60;;
46719;SDS011;32452;51.382;-0.002;2022-10-31T06:04:15;26.23;;;5.20;;
46719;SDS011;32452;51.382;-0.002;2022-10-31T06:07:00;27.15;;;5.43;;
46719;SDS011;32452;51.382;-0.002;2022-10-31T06:09:46;20.58;;;4.95;;
46719;SDS011;32452;51.382;-0.002;2022-10-31T06:12:31;22.63;;;5.50;;
46719;SDS011;32452;51.382;-0.002;2022-10-31T06:15:22;26.83;;;5.75;;
46719;SDS011;32452;51.382;-0.002;2022-10-31T06:18:08;26.85;;;5.65;;
46719;SDS011;32452;51.382;-0.002;2022-10-31T06:20:54;25.38;;;5.13;;
46719;SDS011;32452;51.382;-0.002;2022-10-31T06:23:40;22.23;;;5.32;;
46719;SDS011;32452;51.382;-0.002;2022-10-31T06:26:25;21.42;;;5.45;;
46719;SDS011;32452;51.382;-0.002;2022-10-31T06:29:11;17.80;;;4.93;;
46719;SDS011;32452;51.382;-0.002;2022-10-31T06:31:56;23.92;;;5.32;;
46719;SDS011;32452;51.382;-0.002;2022-10-31T06:34:42;21.10;;;5.65;;
46719;SDS011;32452;51.382;-0.002;2022-10-31T06:37:28;17.92;;;4.45;;
46719;SDS011;32452;51.382;-0.002;2022-10-31T06:40:13;18.92;;;4.55;;
46719;SDS011;32452;51.382;-0.002;2022-10-31T06:43:00;15.10;;;4.95;;
46719;SDS011;32452;51.382;-0.002;2022-10-31T06:45:46;19.48;;;4.95;;
46719;SDS011;32452;51.382;-0.002;2022-10-31T06:48:32;18.52;;;4.30;;
46719;SDS011;32452;51.382;-0.002;2022-10-31T06:51:18;16.52;;;4.03;;
46719;SDS011;32452;51.382;-0.002;2022-10-31T06:54:03;24.98;;;4.78;;
46719;SDS011;32452;51.382;-0.002;2022-10-31T06:56:49;25.48;;;4.80;;
46719;SDS011;32452;51.382;-0.002;2022-10-31T06:59:34;19.60;;;4.40;;
46719;SDS011;32452;51.382;-0.002;2022-10-31T07:02:20;23.10;;;4.78;;
46719;SDS011;32452;51.382;-0.002;2022-10-31T07:05:05;23.85;;;4.25;;
46719;SDS011;32452;51.382;-0.002;2022-10-31T07:07:51;14.40;;;4.88;;
46719;SDS011;32452;51.382;-0.002;2022-10-31T07:10:50;31.13;;;6.15;;
46719;SDS011;32452;51.382;-0.002;2022-10-31T07:13:39;15.02;;;3.90;;
46719;SDS011;32452;51.382;-0.002;2022-10-31T07:16:25;18.35;;;4.95;;
46719;SDS011;32452;51.382;-0.002;2022-10-31T07:19:10;26.42;;;3.92;;
46719;SDS011;32452;51.382;-0.002;2022-10-31T07:21:56;30.67;;;4.75;;
46719;SDS011;32452;51.382;-0.002;2022-10-31T07:24:42;24.98;;;5.43;;
46719;SDS011;32452;51.382;-0.002;2022-10-31T07:27:27;20.80;;;6.65;;
46719;SDS011;32452;51.382;-0.002;2022-10-31T07:30:13;21.67;;;6.28;;
46719;SDS011;32452;51.382;-0.002;2022-10-31T07:32:59;26.05;;;4.82;;
46719;SDS011;32452;51.382;-0.002;2022-10-31T07:35:45;21.73;;;6.22;;
46719;SDS011;32452;51.382;-0.002;2022-10-31T07:38:30;21.77;;;6.50;;
46719;SDS011;32452;51.382;-0.002;2022-10-31T07:41:16;27.30;;;7.28;;
46719;SDS011;32452;51.382;-0.002;2022-10-31T07:44:02;32.17;;;13.38;;
46719;SDS011;32452;51.382;-0.002;2022-10-31T07:46:47;37.20;;;14.70;;
46719;SDS011;32452;51.382;-0.002;2022-10-31T07:49:33;38.67;;;14.30;;
46719;SDS011;32452;51.382;-0.002;2022-10-31T07:52:18;37.70;;;14.88;;
46719;SDS011;32452;51.382;-0.002;2022-10-31T07:55:05;44.95;;;17.60;;
46719;SDS011;32452;51.382;-0.002;2022-10-31T08:00:45;36.00;;;17.27;;
46719;SDS011;32452;51.382;-0.002;2022-10-31T08:03:32;42.97;;;18.35;;
46719;SDS011;32452;51.382;-0.002;2022-10-31T08:06:17;36.42;;;17.45;;
46719;SDS011;32452;51.382;-0.002;2022-10-31T08:09:03;36.90;;;17.02;;
46719;SDS011;32452;51.382;-0.002;2022-10-31T08:11:48;32.65;;;16.88;;
46719;SDS011;32452;51.382;-0.002;2022-10-31T08:14:34;32.72;;;15.05;;
46719;SDS011;32452;51.382;-0.002;2022-10-31T08:17:19;29.58;;;13.07;;
46719;SDS011;32452;51.382;-0.002;2022-10-31T08:20:05;28.83;;;11.52;;
46719;SDS011;32452;51.382;-0.002;2022-10-31T08:23:01;27.80;;;12.23;;
46719;SDS011;32452;51.382;-0.002;2022-10-31T08:25:48;28.50;;;7.93;;
46719;SDS011;32452;51.382;-0.002;2022-10-31T08:28:34;17.02;;;4.53;;
46719;SDS011;32452;51.382;-0.002;2022-10-31T08:31:20;16.13;;;3.80;;
46719;SDS011;32452;51.382;-0.002;2022-10-31T08:34:06;10.48;;;2.63;;
46719;SDS011;32452;51.382;-0.002;2022-10-31T08:36:51;15.95;;;2.42;;
46719;SDS011;32452;51.382;-0.002;2022-10-31T08:39:36;12.13;;;3.00;;
46719;SDS011;32452;51.382;-0.002;2022-10-31T08:42:22;11.88;;;2.50;;
46719;SDS011;32452;51.382;-0.002;2022-10-31T08:45:07;18.55;;;3.05;;
46719;SDS011;32452;51.382;-0.002;2022-10-31T08:47:56;18.85;;;4.80;;
46719;SDS011;32452;51.382;-0.002;2022-10-31T08:50:46;10.93;;;2.42;;
46719;SDS011;32452;51.382;-0.002;2022-10-31T08:53:32;10.02;;;2.38;;
46719;SDS011;32452;51.382;-0.002;2022-10-31T08:56:17;16.10;;;2.30;;
46719;SDS011;32452;51.382;-0.002;2022-10-31T08:59:02;12.15;;;2.78;;
46719;SDS011;32452;51.382;-0.002;2022-10-31T09:01:48;12.82;;;2.72;;
46719;SDS011;32452;51.382;-0.002;2022-10-31T09:04:34;8.90;;;1.90;;
46719;SDS011;32452;51.382;-0.002;2022-10-31T09:07:19;13.00;;;2.65;;
46719;SDS011;32452;51.382;-0.002;2022-10-31T09:10:05;13.40;;;3.28;;
46719;SDS011;32452;51.382;-0.002;2022-10-31T09:13:00;13.98;;;3.13;;
46719;SDS011;32452;51.382;-0.002;2022-10-31T09:15:53;11.20;;;3.45;;
46719;SDS011;32452;51.382;-0.002;2022-10-31T09:18:40;18.10;;;3.80;;
46719;SDS011;32452;51.382;-0.002;2022-10-31T09:21:26;11.00;;;2.53;;
46719;SDS011;32452;51.382;-0.002;2022-10-31T09:24:11;11.05;;;2.35;;
46719;SDS011;32452;51.382;-0.002;2022-10-31T09:26:58;11.45;;;2.60;;
46719;SDS011;32452;51.382;-0.002;2022-10-31T09:29:43;14.32;;;2.80;;
46719;SDS011;32452;51.382;-0.002;2022-10-31T09:32:28;7.55;;;2.05;;
46719;SDS011;32452;51.382;-0.002;2022-10-31T09:35:14;10.55;;;2.35;;
46719;SDS011;32452;51.382;-0.002;2022-10-31T09:38:04;18.50;;;2.85;;
46719;SDS011;32452;51.382;-0.002;2022-10-31T09:40:55;11.18;;;2.47;;
46719;SDS011;32452;51.382;-0.002;2022-10-31T09:43:58;11.95;;;2.47;;
46719;SDS011;32452;51.382;-0.002;2022-10-31T09:50:02;11.57;;;2.40;;
46719;SDS011;32452;51.382;-0.002;2022-10-31T09:53:00;15.13;;;3.25;;
46719;SDS011;32452;51.382;-0.002;2022-10-31T09:55:50;12.48;;;2.10;;
46719;SDS011;32452;51.382;-0.002;2022-10-31T09:58:39;10.25;;;3.50;;
46719;SDS011;32452;51.382;-0.002;2022-10-31T10:01:39;15.95;;;2.28;;
46719;SDS011;32452;51.382;-0.002;2022-10-31T10:07:25;12.60;;;2.22;;
46719;SDS011;32452;51.382;-0.002;2022-10-31T10:10:17;19.97;;;6.37;;
46719;SDS011;32452;51.382;-0.002;2022-10-31T10:19:50;9.15;;;2.35;;
46719;SDS011;32452;51.382;-0.002;2022-10-31T10:23:11;9.55;;;2.28;;
46719;SDS011;32452;51.382;-0.002;2022-10-31T10:26:06;8.63;;;2.63;;
46719;SDS011;32452;51.382;-0.002;2022-10-31T10:29:01;10.43;;;2.08;;
46719;SDS011;32452;51.382;-0.002;2022-10-31T10:31:56;10.48;;;2.25;;
46719;SDS011;32452;51.382;-0.002;2022-10-31T10:34:47;7.43;;;1.65;;
46719;SDS011;32452;51.382;-0.002;2022-10-31T10:37:38;12.30;;;2.10;;
46719;SDS011;32452;51.382;-0.002;2022-10-31T10:40:27;9.70;;;2.28;;
46719;SDS011;32452;51.382;-0.002;2022-10-31T10:52:40;10.50;;;2.05;;
46719;SDS011;32452;51.382;-0.002;2022-10-31T10:58:33;12.20;;;2.20;;
46719;SDS011;32452;51.382;-0.002;2022-10-31T11:01:21;8.23;;;1.83;;
46719;SDS011;32452;51.382;-0.002;2022-10-31T11:04:29;5.95;;;1.70;;
46719;SDS011;32452;51.382;-0.002;2022-10-31T11:07:14;10.07;;;1.65;;
46719;SDS011;32452;51.382;-0.002;2022-10-31T11:10:04;6.72;;;1.63;;
46719;SDS011;32452;51.382;-0.002;2022-10-31T11:13:00;6.38;;;1.83;;
46719;SDS011;32452;51.382;-0.002;2022-10-31T11:18:44;10.65;;;2.13;;
46719;SDS011;32452;51.382;-0.002;2022-10-31T11:21:31;9.38;;;2.85;;
46719;SDS011;32452;51.382;-0.002;2022-10-31T11:24:21;13.00;;;3.47;;
46719;SDS011;32452;51.382;-0.002;2022-10-31T11:27:16;7.68;;;1.70;;
46719;SDS011;32452;51.382;-0.002;2022-10-31T11:30:06;7.72;;;1.75;;
46719;SDS011;32452;51.382;-0.002;2022-10-31T11:32:52;9.98;;;2.53;;
46719;SDS011;32452;51.382;-0.002;2022-10-31T11:35:39;6.88;;;1.30;;
46719;SDS011;32452;51.382;-0.002;2022-10-31T11:38:35;7.30;;;2.50;;
46719;SDS011;32452;51.382;-0.002;2022-10-31T11:41:27;10.45;;;1.77;;
46719;SDS011;32452;51.382;-0.002;2022-10-31T11:44:27;7.63;;;1.73;;
46719;SDS011;32452;51.382;-0.002;2022-10-31T11:47:16;7.63;;;1.40;;
46719;SDS011;32452;51.382;-0.002;2022-10-31T11:50:11;6.18;;;1.60;;
46719;SDS011;32452;51.382;-0.002;2022-10-31T11:53:12;7.00;;;2.05;;
46719;SDS011;32452;51.382;-0.002;2022-10-31T11:58:54;11.55;;;2.03;;
46719;SDS011;32452;51.382;-0.002;2022-10-31T12:01:48;10.68;;;1.83;;
46719;SDS011;32452;51.382;-0.002;2022-10-31T12:04:40;4.55;;;0.98;;
46719;SDS011;32452;51.382;-0.002;2022-10-31T12:07:29;5.78;;;1.27;;
46719;SDS011;32452;51.382;-0.002;2022-10-31T12:10:15;6.45;;;1.20;;
46719;SDS011;32452;51.382;-0.002;2022-10-31T12:16:00;6.18;;;1.65;;
46719;SDS011;32452;51.382;-0.002;2022-10-31T12:19:11;7.68;;;1.30;;
46719;SDS011;32452;51.382;-0.002;2022-10-31T12:28:16;5.53;;;1.33;;
46719;SDS011;32452;51.382;-0.002;2022-10-31T12:47:37;6.15;;;1.25;;
46719;SDS011;32452;51.382;-0.002;2022-10-31T13:02:32;7.00;;;1.45;;
46719;SDS011;32452;51.382;-0.002;2022-10-31T13:05:31;5.22;;;1.35;;
46719;SDS011;32452;51.382;-0.002;2022-10-31T13:08:30;10.68;;;2.05;;
46719;SDS011;32452;51.382;-0.002;2022-10-31T13:11:21;6.22;;;1.20;;
46719;SDS011;32452;51.382;-0.002;2022-10-31T13:15:03;6.70;;;1.42;;
46719;SDS011;32452;51.382;-0.002;2022-10-31T13:17:44;7.50;;;1.58;;
46719;SDS011;32452;51.382;-0.002;2022-10-31T13:20:34;4.07;;;1.33;;
46719;SDS011;32452;51.382;-0.002;2022-10-31T13:23:29;5.75;;;1.70;;
46719;SDS011;32452;51.382;-0.002;2022-10-31T13:26:37;10.35;;;2.28;;
46719;SDS011;32452;51.382;-0.002;2022-10-31T13:29:29;8.23;;;1.55;;
46719;SDS011;32452;51.382;-0.002;2022-10-31T13:32:18;7.97;;;1.65;;
46719;SDS011;32452;51.382;-0.002;2022-10-31T13:35:04;4.85;;;1.77;;
46719;SDS011;32452;51.382;-0.002;2022-10-31T13:37:58;10.02;;;1.63;;
46719;SDS011;32452;51.382;-0.002;2022-10-31T13:44:13;7.85;;;1.33;;
46719;SDS011;32452;51.382;-0.002;2022-10-31T13:46:59;5.38;;;1.73;;
46719;SDS011;32452;51.382;-0.002;2022-10-31T13:49:44;6.20;;;1.33;;
46719;SDS011;32452;51.382;-0.002;2022-10-31T13:52:30;11.00;;;2.10;;
46719;SDS011;32452;51.382;-0.002;2022-10-31T13:55:34;7.40;;;1.52;;
46719;SDS011;32452;51.382;-0.002;2022-10-31T13:58:23;5.10;;;2.00;;
46719;SDS011;32452;51.382;-0.002;2022-10-31T14:01:18;6.15;;;1.70;;
46719;SDS011;32452;51.382;-0.002;2022-10-31T14:04:06;7.05;;;1.38;;
46719;SDS011;32452;51.382;-0.002;2022-10-31T14:09:55;4.53;;;1.35;;
46719;SDS011;32452;51.382;-0.002;2022-10-31T14:12:48;7.70;;;1.50;;
46719;SDS011;32452;51.382;-0.002;2022-10-31T14:15:34;5.38;;;1.50;;
46719;SDS011;32452;51.382;-0.002;2022-10-31T14:30:16;7.30;;;1.92;;
46719;SDS011;32452;51.382;-0.002;2022-10-31T14:33:13;5.72;;;1.90;;
46719;SDS011;32452;51.382;-0.002;2022-10-31T14:36:07;5.70;;;1.80;;
46719;SDS011;32452;51.382;-0.002;2022-10-31T14:39:13;7.65;;;1.83;;
46719;SDS011;32452;51.382;-0.002;2022-10-31T14:42:24;10.30;;;1.95;;
46719;SDS011;32452;51.382;-0.002;2022-10-31T14:51:48;7.05;;;1.75;;
46719;SDS011;32452;51.382;-0.002;2022-10-31T14:54:38;6.63;;;1.80;;
46719;SDS011;32452;51.382;-0.002;2022-10-31T14:57:31;5.72;;;1.67;;
46719;SDS011;32452;51.382;-0.002;2022-10-31T15:03:15;7.38;;;1.83;;
46719;SDS011;32452;51.382;-0.002;2022-10-31T15:06:11;8.38;;;2.17;;
46719;SDS011;32452;51.382;-0.002;2022-10-31T15:09:02;5.45;;;1.80;;
46719;SDS011;32452;51.382;-0.002;2022-10-31T15:11:48;6.95;;;1.85;;
46719;SDS011;32452;51.382;-0.002;2022-10-31T15:14:33;8.02;;;2.53;;
46719;SDS011;32452;51.382;-0.002;2022-10-31T15:17:19;9.05;;;2.25;;
46719;SDS011;32452;51.382;-0.002;2022-10-31T15:20:06;4.97;;;2.33;;
46719;SDS011;32452;51.382;-0.002;2022-10-31T15:22:53;6.78;;;1.73;;
46719;SDS011;32452;51.382;-0.002;2022-10-31T15:25:41;6.97;;;2.10;;
46719;SDS011;32452;51.382;-0.002;2022-10-31T15:28:26;9.55;;;1.90;;
46719;SDS011;32452;51.382;-0.002;2022-10-31T15:31:13;5.30;;;1.77;;
46719;SDS011;32452;51.382;-0.002;2022-10-31T15:34:03;10.27;;;2.85;;
46719;SDS011;32452;51.382;-0.002;2022-10-31T15:36:56;5.72;;;2.30;;
46719;SDS011;32452;51.382;-0.002;2022-10-31T15:39:42;7.32;;;2.20;;
46719;SDS011;32452;51.382;-0.002;2022-10-31T15:42:30;12.63;;;3.47;;
46719;SDS011;32452;51.382;-0.002;2022-10-31T15:48:27;10.05;;;2.20;;
46719;SDS011;32452;51.382;-0.002;2022-10-31T15:51:11;11.10;;;3.33;;
46719;SDS011;32452;51.382;-0.002;2022-10-31T15:53:57;10.38;;;2.03;;
46719;SDS011;32452;51.382;-0.002;2022-10-31T15:56:44;8.63;;;2.38;;
46719;SDS011;32452;51.382;-0.002;2022-10-31T15:59:30;12.27;;;3.00;;
46719;SDS011;32452;51.382;-0.002;2022-10-31T16:02:20;7.63;;;2.22;;
46719;SDS011;32452;51.382;-0.002;2022-10-31T16:05:15;11.80;;;2.13;;
46719;SDS011;32452;51.382;-0.002;2022-10-31T16:08:02;5.05;;;1.90;;
46719;SDS011;32452;51.382;-0.002;2022-10-31T16:10:48;7.95;;;2.42;;
46719;SDS011;32452;51.382;-0.002;2022-10-31T16:13:34;9.75;;;2.38;;
46719;SDS011;32452;51.382;-0.002;2022-10-31T16:16:22;7.47;;;2.40;;
46719;SDS011;32452;51.382;-0.002;2022-10-31T16:22:12;8.48;;;2.30;;
46719;SDS011;32452;51.382;-0.002;2022-10-31T16:25:10;7.63;;;2.60;;
46719;SDS011;32452;51.382;-0.002;2022-10-31T16:28:01;7.13;;;2.80;;
46719;SDS011;32452;51.382;-0.002;2022-10-31T16:31:14;6.25;;;2.80;;
46719;SDS011;32452;51.382;-0.002;2022-10-31T16:34:01;9.98;;;3.85;;
46719;SDS011;32452;51.382;-0.002;2022-10-31T16:36:57;6.55;;;2.45;;
46719;SDS011;32452;51.382;-0.002;2022-10-31T16:39:42;9.85;;;2.78;;
46719;SDS011;32452;51.382;-0.002;2022-10-31T16:42:27;8.13;;;2.90;;
46719;SDS011;32452;51.382;-0.002;2022-10-31T16:45:14;13.15;;;3.20;;
46719;SDS011;32452;51.382;-0.002;2022-10-31T16:48:09;8.23;;;2.50;;
46719;SDS011;32452;51.382;-0.002;2022-10-31T16:50:59;11.63;;;3.67;;
46719;SDS011;32452;51.382;-0.002;2022-10-31T16:53:44;12.32;;;3.20;;
46719;SDS011;32452;51.382;-0.002;2022-10-31T16:56:31;8.98;;;3.47;;
46719;SDS011;32452;51.382;-0.002;2022-10-31T17:03:57;9.07;;;3.17;;
46719;SDS011;32452;51.382;-0.002;2022-10-31T17:06:42;11.13;;;3.60;;
46719;SDS011;32452;51.382;-0.002;2022-10-31T17:09:28;10.35;;;3.78;;
46719;SDS011;32452;51.382;-0.002;2022-10-31T17:12:15;12.38;;;3.58;;
46719;SDS011;32452;51.382;-0.002;2022-10-31T17:15:04;14.50;;;4.72;;
46719;SDS011;32452;51.382;-0.002;2022-10-31T17:17:51;14.50;;;4.88;;
46719;SDS011;32452;51.382;-0.002;2022-10-31T17:20:37;12.93;;;4.53;;
46719;SDS011;32452;51.382;-0.002;2022-10-31T17:23:23;12.63;;;5.00;;
46719;SDS011;32452;51.382;-0.002;2022-10-31T17:26:09;13.38;;;5.40;;
46719;SDS011;32452;51.382;-0.002;2022-10-31T17:28:55;11.85;;;5.22;;
46719;SDS011;32452;51.382;-0.002;2022-10-31T17:31:41;12.27;;;6.03;;
46719;SDS011;32452;51.382;-0.002;2022-10-31T17:34:27;14.02;;;6.70;;
46719;SDS011;32452;51.382;-0.002;2022-10-31T17:37:12;13.40;;;6.57;;
46719;SDS011;32452;51.382;-0.002;2022-10-31T17:39:58;14.02;;;7.88;;
46719;SDS011;32452;51.382;-0.002;2022-10-31T17:42:50;15.77;;;7.85;;
46719;SDS011;32452;51.382;-0.002;2022-10-31T17:45:40;16.73;;;8.75;;
46719;SDS011;32452;51.382;-0.002;2022-10-31T17:48:26;18.50;;;8.18;;
46719;SDS011;32452;51.382;-0.002;2022-10-31T17:51:12;15.45;;;8.43;;
46719;SDS011;32452;51.382;-0.002;2022-10-31T17:53:58;21.88;;;9.43;;
46719;SDS011;32452;51.382;-0.002;2022-10-31T17:56:43;21.00;;;9.05;;
46719;SDS011;32452;51.382;-0.002;2022-10-31T17:59:29;17.45;;;9.80;;
46719;SDS011;32452;51.382;-0.002;2022-10-31T18:02:14;22.77;;;9.93;;
46719;SDS011;32452;51.382;-0.002;2022-10-31T18:05:00;18.88;;;10.57;;
46719;SDS011;32452;51.382;-0.002;2022-10-31T18:07:49;23.77;;;11.63;;
46719;SDS011;32452;51.382;-0.002;2022-10-31T18:10:37;20.35;;;11.10;;
46719;SDS011;32452;51.382;-0.002;2022-10-31T18:13:22;23.15;;;13.23;;
46719;SDS011;32452;51.382;-0.002;2022-10-31T18:16:09;25.85;;;12.77;;
46719;SDS011;32452;51.382;-0.002;2022-10-31T18:18:59;25.00;;;13.65;;
46719;SDS011;32452;51.382;-0.002;2022-10-31T18:21:46;27.10;;;15.00;;
46719;SDS011;32452;51.382;-0.002;2022-10-31T18:24:31;27.70;;;15.02;;
46719;SDS011;32452;51.382;-0.002;2022-10-31T18:27:17;26.42;;;13.75;;
46719;SDS011;32452;51.382;-0.002;2022-10-31T18:30:06;25.98;;;15.55;;
46719;SDS011;32452;51.382;-0.002;2022-10-31T18:32:51;29.00;;;17.17;;
46719;SDS011;32452;51.382;-0.002;2022-10-31T18:35:38;36.65;;;16.20;;
46719;SDS011;32452;51.382;-0.002;2022-10-31T18:38:24;26.63;;;15.35;;
46719;SDS011;32452;51.382;-0.002;2022-10-31T18:41:09;29.08;;;14.48;;
46719;SDS011;32452;51.382;-0.002;2022-10-31T18:43:56;26.63;;;15.10;;
46719;SDS011;32452;51.382;-0.002;2022-10-31T18:46:44;27.95;;;16.77;;